createdAt,value
2018-07-21T00:01:49.138Z,73.90
2018-07-21T00:04:20.860Z,73.90
2018-07-21T00:06:52.217Z,74.00
2018-07-21T00:09:23.626Z,74.00
2018-07-21T00:11:54.620Z,73.90
2018-07-21T00:14:26.256Z,73.90
2018-07-21T00:16:57.607Z,73.90
2018-07-21T00:19:29.344Z,74.10
2018-07-21T00:22:01.020Z,74.20
2018-07-21T00:24:32.649Z,74.30
2018-07-21T00:27:15.802Z,74.40
2018-07-21T00:29:46.826Z,74.80
2018-07-21T00:32:18.393Z,75.00
2018-07-21T00:37:22.043Z,75.60
2018-07-21T00:39:53.427Z,76.00
2018-07-21T00:42:25.251Z,76.20
2018-07-21T00:44:57.518Z,76.60
2018-07-21T00:47:31.316Z,76.80
2018-07-21T00:50:03.417Z,77.00
2018-07-21T00:52:36.549Z,77.30
2018-07-21T00:55:07.987Z,77.60
2018-07-21T00:57:41.893Z,77.90
2018-07-21T01:00:13.652Z,78.50
2018-07-21T01:02:45.436Z,78.90
2018-07-21T01:05:16.838Z,79.60
2018-07-21T01:07:48.128Z,79.80
2018-07-21T01:10:19.674Z,80.30
2018-07-21T01:12:51.008Z,80.00
2018-07-21T01:15:23.677Z,80.30
2018-07-21T01:17:55.325Z,80.00
2018-07-21T01:20:26.490Z,79.50
2018-07-21T01:22:58.630Z,79.40
2018-07-21T01:25:29.965Z,79.70
2018-07-21T01:28:03.877Z,79.40
2018-07-21T01:30:35.303Z,79.30
2018-07-21T01:33:08.560Z,79.30
2018-07-21T01:35:41.891Z,79.40
2018-07-21T01:38:12.116Z,79.30
2018-07-21T01:40:44.363Z,79.00
2018-07-21T01:43:15.308Z,79.30
2018-07-21T01:45:47.506Z,80.00
2018-07-21T01:48:20.200Z,79.50
2018-07-21T01:50:55.960Z,79.90
2018-07-21T01:53:27.684Z,79.80
2018-07-21T01:55:59.071Z,79.40
2018-07-21T01:58:31.108Z,80.30
2018-07-21T02:01:02.935Z,80.40
2018-07-21T02:03:34.655Z,80.40
2018-07-21T02:06:06.062Z,80.60
2018-07-21T02:08:38.862Z,80.90
2018-07-21T02:11:09.798Z,81.10
2018-07-21T02:13:42.012Z,81.00
2018-07-21T02:16:13.495Z,81.10
2018-07-21T02:18:45.096Z,81.30
2018-07-21T02:21:16.212Z,81.50
2018-07-21T02:23:48.068Z,81.10
2018-07-21T02:26:19.654Z,81.10
2018-07-21T02:31:22.332Z,80.70
2018-07-21T02:33:53.704Z,80.90
2018-07-21T02:36:25.318Z,80.50
2018-07-21T02:38:56.822Z,80.00
2018-07-21T02:41:27.936Z,79.90
2018-07-21T02:43:59.343Z,79.80
2018-07-21T02:46:30.685Z,79.90
2018-07-21T02:49:02.547Z,80.60
2018-07-21T02:51:35.192Z,80.90
2018-07-21T02:54:06.533Z,80.50
2018-07-21T02:56:38.935Z,80.70
2018-07-21T02:59:10.075Z,81.30
2018-07-21T03:01:41.783Z,81.90
2018-07-21T03:04:13.195Z,81.50
2018-07-21T03:06:44.388Z,82.10
2018-07-21T03:09:15.740Z,82.70
2018-07-21T03:11:46.872Z,82.90
2018-07-21T03:14:18.329Z,82.70
2018-07-21T03:16:49.836Z,83.00
2018-07-21T03:19:24.674Z,82.90
2018-07-21T03:21:56.210Z,83.30
2018-07-21T03:24:31.476Z,84.20
2018-07-21T03:27:02.637Z,84.10
2018-07-21T03:29:33.969Z,85.00
2018-07-21T03:32:05.387Z,85.50
2018-07-21T03:34:37.384Z,86.00
2018-07-21T03:37:08.514Z,86.30
2018-07-21T03:39:39.655Z,86.10
2018-07-21T03:42:11.416Z,86.10
2018-07-21T03:44:45.179Z,85.90
2018-07-21T03:47:16.469Z,86.00
2018-07-21T03:49:47.816Z,87.20
2018-07-21T03:52:21.098Z,86.70
2018-07-21T03:54:51.920Z,86.80
2018-07-21T03:57:23.815Z,87.30
2018-07-21T03:59:55.351Z,88.00
2018-07-21T04:02:26.595Z,88.20
2018-07-21T04:04:58.002Z,88.60
2018-07-21T04:07:30.611Z,89.20
2018-07-21T04:10:02.265Z,89.30
2018-07-21T04:12:33.559Z,89.20
2018-07-21T04:15:11.653Z,89.70
2018-07-21T04:17:42.759Z,89.80
2018-07-21T04:20:17.408Z,89.70
2018-07-21T04:22:48.364Z,90.40
2018-07-21T04:25:19.483Z,90.40
2018-07-21T04:27:50.610Z,90.70
2018-07-21T04:30:22.147Z,90.40
2018-07-21T04:32:55.655Z,90.00
2018-07-21T04:35:29.098Z,90.10
2018-07-21T04:38:01.987Z,90.00
2018-07-21T04:40:41.052Z,89.90
2018-07-21T04:43:15.745Z,89.10
2018-07-21T04:45:50.591Z,89.10
2018-07-21T04:48:25.323Z,88.20
2018-07-21T04:50:59.413Z,88.00
2018-07-21T04:53:35.701Z,87.80
2018-07-21T04:56:11.281Z,87.60
2018-07-21T04:58:43.687Z,87.00
2018-07-21T05:01:17.814Z,86.70
2018-07-21T05:03:52.472Z,86.00
2018-07-21T05:06:27.241Z,85.50
2018-07-21T05:09:05.881Z,85.60
2018-07-21T05:11:39.333Z,84.50
2018-07-21T05:14:10.754Z,84.40
2018-07-21T05:16:46.211Z,83.80
2018-07-21T05:19:20.246Z,84.00
2018-07-21T05:21:56.709Z,84.00
2018-07-21T05:24:32.206Z,83.50
2018-07-21T05:27:05.712Z,83.30
2018-07-21T05:29:41.083Z,82.90
2018-07-21T05:32:16.131Z,82.60
2018-07-21T05:34:50.284Z,82.10
2018-07-21T05:37:25.258Z,81.90
2018-07-21T05:40:01.354Z,81.90
2018-07-21T05:42:35.054Z,81.30
2018-07-21T05:45:12.400Z,80.30
2018-07-21T05:47:46.659Z,80.90
2018-07-21T05:50:17.456Z,79.90
2018-07-21T05:52:48.518Z,80.00
2018-07-21T05:55:19.223Z,80.50
2018-07-21T05:57:52.336Z,80.40
2018-07-21T06:00:23.312Z,80.50
2018-07-21T06:02:58.567Z,80.10
2018-07-21T06:05:31.051Z,79.70
2018-07-21T06:08:04.863Z,79.00
2018-07-21T06:10:35.911Z,78.60
2018-07-21T06:13:07.724Z,78.30
2018-07-21T06:15:38.478Z,78.30
2018-07-21T06:18:09.350Z,78.50
2018-07-21T06:20:45.417Z,78.20
2018-07-21T06:23:19.376Z,78.40
2018-07-21T06:25:51.165Z,78.40
2018-07-21T06:28:22.805Z,78.70
2018-07-21T06:33:26.704Z,78.80
2018-07-21T06:35:57.752Z,78.90
2018-07-21T06:38:29.290Z,78.90
2018-07-21T06:40:59.632Z,78.80
2018-07-21T06:43:31.355Z,78.30
2018-07-21T06:46:02.047Z,78.30
2018-07-21T06:48:32.847Z,77.90
2018-07-21T06:51:04.892Z,77.00
2018-07-21T06:53:35.442Z,76.50
2018-07-21T06:56:06.022Z,76.10
2018-07-21T06:58:37.540Z,75.90
2018-07-21T07:01:08.212Z,75.50
2018-07-21T07:03:38.453Z,75.20
2018-07-21T07:06:08.509Z,75.00
2018-07-21T07:08:41.530Z,74.50
2018-07-21T07:11:11.597Z,73.80
2018-07-21T07:13:41.771Z,72.90
2018-07-21T07:16:11.770Z,71.90
2018-07-21T07:18:42.460Z,72.10
2018-07-21T07:21:12.119Z,72.00
2018-07-21T07:26:37.817Z,71.30
2018-07-21T07:29:07.351Z,70.60
2018-07-21T07:31:36.984Z,71.50
2018-07-21T07:34:07.133Z,70.80
2018-07-21T07:36:37.322Z,71.00
2018-07-21T07:39:10.907Z,71.30
2018-07-21T07:41:41.106Z,71.90
2018-07-21T07:44:11.565Z,71.50
2018-07-21T07:46:43.303Z,71.50
2018-07-21T07:49:14.387Z,71.10
2018-07-21T07:51:45.874Z,70.50
2018-07-21T07:54:17.033Z,69.40
2018-07-21T07:56:48.382Z,69.00
2018-07-21T07:59:19.455Z,69.20
2018-07-21T08:01:50.881Z,69.30
2018-07-21T08:04:22.875Z,68.70
2018-07-21T08:09:24.812Z,67.70
2018-07-21T08:11:55.181Z,68.50
2018-07-21T08:14:27.158Z,67.80
2018-07-21T08:16:58.961Z,66.80
2018-07-21T08:19:30.451Z,66.30
2018-07-21T08:22:02.228Z,66.50
2018-07-21T08:24:35.011Z,67.40
2018-07-21T08:27:07.665Z,66.20
2018-07-21T08:29:39.203Z,67.20
2018-07-21T08:32:10.831Z,66.00
2018-07-21T08:34:42.953Z,66.00
2018-07-21T08:37:15.614Z,65.50
2018-07-21T08:39:49.342Z,64.10
2018-07-21T08:42:22.495Z,63.70
2018-07-21T08:44:54.894Z,63.40
2018-07-21T08:47:25.890Z,62.20
2018-07-21T08:49:56.693Z,63.30
2018-07-21T08:52:28.521Z,63.30
2018-07-21T08:55:00.297Z,64.20
2018-07-21T08:57:30.507Z,64.60
2018-07-21T09:00:01.424Z,64.20
2018-07-21T09:02:32.496Z,64.20
2018-07-21T09:05:04.361Z,64.30
2018-07-21T09:10:05.561Z,64.40
2018-07-21T09:12:42.123Z,64.50
2018-07-21T09:18:09.464Z,65.30
2018-07-21T09:20:38.610Z,65.20
2018-07-21T09:23:09.602Z,64.00
2018-07-21T09:25:40.634Z,62.40
2018-07-21T09:28:17.071Z,61.70
2018-07-21T09:30:52.270Z,61.10
2018-07-21T09:33:22.872Z,60.60
2018-07-21T09:35:56.139Z,60.10
2018-07-21T09:38:27.383Z,59.60
2018-07-21T09:40:58.031Z,59.40
2018-07-21T09:43:29.290Z,59.40
2018-07-21T09:45:59.624Z,59.60
2018-07-21T09:48:31.196Z,59.90
2018-07-21T09:51:03.445Z,59.10
2018-07-21T09:53:36.514Z,57.40
2018-07-21T09:56:07.020Z,57.40
2018-07-21T09:58:36.521Z,57.40
2018-07-21T10:03:36.176Z,56.30
2018-07-21T10:06:10.871Z,55.90
2018-07-21T10:11:12.246Z,55.00
2018-07-21T10:13:45.593Z,54.70
2018-07-21T10:16:24.141Z,54.90
2018-07-21T10:18:57.247Z,55.00
2018-07-21T10:23:59.638Z,54.90
2018-07-21T10:26:33.816Z,53.70
2018-07-21T10:29:08.784Z,53.20
2018-07-21T10:31:38.644Z,53.70
2018-07-21T10:34:10.427Z,53.20
2018-07-21T10:36:40.121Z,53.00
2018-07-21T10:39:13.457Z,53.00
2018-07-21T10:41:43.263Z,52.40
2018-07-21T10:44:16.726Z,51.60
2018-07-21T10:46:50.411Z,50.90
2018-07-21T10:49:19.935Z,51.70
2018-07-21T10:52:00.728Z,51.20
2018-07-21T10:54:29.668Z,51.80
2018-07-21T10:56:59.412Z,52.20
2018-07-21T10:59:28.360Z,51.70
2018-07-21T11:02:03.789Z,51.40
2018-07-21T11:04:33.409Z,51.10
2018-07-21T11:07:02.591Z,50.40
2018-07-21T11:09:31.467Z,50.10
2018-07-21T11:12:02.009Z,49.70
2018-07-21T11:14:31.273Z,50.40
2018-07-21T11:17:02.564Z,50.20
2018-07-21T11:19:31.997Z,51.20
2018-07-21T11:22:02.509Z,50.90
2018-07-21T11:24:31.615Z,50.20
2018-07-21T11:27:01.834Z,49.70
2018-07-21T11:29:34.972Z,49.40
2018-07-21T11:32:03.866Z,49.40
2018-07-21T11:34:32.736Z,48.60
2018-07-21T11:37:02.280Z,48.70
2018-07-21T11:39:31.061Z,48.80
2018-07-21T11:42:00.508Z,49.60
2018-07-21T11:44:29.257Z,50.40
2018-07-21T11:46:58.048Z,49.70
2018-07-21T11:49:27.702Z,49.60
2018-07-21T11:51:56.446Z,49.20
2018-07-21T11:54:25.160Z,49.90
2018-07-21T11:57:00.290Z,48.90
2018-07-21T11:59:31.493Z,49.10
2018-07-21T12:02:01.183Z,49.60
2018-07-21T12:04:31.040Z,49.20
2018-07-21T12:07:01.165Z,49.60
2018-07-21T12:09:30.609Z,50.20
2018-07-21T12:12:01.633Z,50.30
2018-07-21T12:14:30.633Z,51.00
2018-07-21T12:17:00.613Z,51.60
2018-07-21T12:19:29.571Z,51.90
2018-07-21T12:21:58.439Z,51.60
2018-07-21T12:24:32.956Z,50.90
2018-07-21T12:27:03.768Z,49.90
2018-07-21T12:29:33.264Z,49.60
2018-07-21T12:34:39.459Z,50.30
2018-07-21T12:37:08.565Z,51.30
2018-07-21T12:39:38.825Z,52.00
2018-07-21T12:42:09.301Z,51.20
2018-07-21T12:44:38.696Z,50.20
2018-07-21T12:47:09.104Z,49.40
2018-07-21T12:49:37.839Z,49.20
2018-07-21T12:52:08.558Z,49.70
2018-07-21T12:54:37.628Z,50.40
2018-07-21T12:57:08.882Z,51.00
2018-07-21T12:59:40.959Z,51.30
2018-07-21T13:02:10.367Z,50.80
2018-07-21T13:04:39.186Z,50.70
2018-07-21T13:07:09.093Z,50.90
2018-07-21T13:09:49.206Z,50.40
2018-07-21T13:12:18.745Z,50.20
2018-07-21T13:14:49.110Z,50.40
2018-07-21T13:17:23.205Z,51.00
2018-07-21T13:19:57.462Z,51.40
2018-07-21T13:22:27.046Z,51.40
2018-07-21T13:24:56.051Z,51.40
2018-07-21T13:27:24.863Z,51.20
2018-07-21T13:29:53.955Z,50.20
2018-07-21T13:32:23.774Z,49.20
2018-07-21T13:40:46.930Z,49.60
2018-07-21T13:43:18.502Z,49.90
2018-07-21T13:45:49.358Z,47.20
2018-07-21T13:48:19.638Z,46.70
2018-07-21T13:50:53.862Z,46.10
2018-07-21T13:53:25.593Z,46.10
2018-07-21T13:56:19.811Z,45.70
2018-07-21T13:58:52.325Z,45.30
2018-07-21T14:01:22.249Z,46.70
2018-07-21T14:03:53.156Z,48.50
2018-07-21T14:06:25.077Z,49.40
2018-07-21T14:08:56.287Z,49.70
2018-07-21T14:11:26.660Z,50.00
2018-07-21T14:13:57.445Z,49.20
2018-07-21T14:16:28.313Z,47.50
2018-07-21T14:18:58.739Z,46.90
2018-07-21T14:21:29.877Z,45.40
2018-07-21T14:24:01.220Z,45.50
2018-07-21T14:26:31.409Z,45.10
2018-07-21T14:29:06.553Z,46.20
2018-07-21T14:31:37.577Z,47.60
2018-07-21T14:34:09.035Z,48.40
2018-07-21T14:36:41.397Z,48.50
2018-07-21T14:39:14.011Z,48.80
2018-07-21T14:41:47.103Z,49.90
2018-07-21T14:44:26.875Z,50.10
2018-07-21T14:46:58.307Z,50.10
2018-07-21T14:49:35.430Z,50.40
2018-07-21T14:52:08.217Z,50.30
2018-07-21T14:54:44.888Z,50.40
2018-07-21T14:57:45.520Z,48.80
2018-07-21T15:00:21.433Z,47.40
2018-07-21T15:02:53.558Z,47.40
2018-07-21T15:05:24.594Z,47.90
2018-07-21T15:07:59.233Z,48.70
2018-07-21T15:10:30.873Z,49.90
2018-07-21T15:13:03.436Z,50.20
2018-07-21T15:15:36.587Z,50.10
2018-07-21T15:18:08.973Z,50.10
2018-07-21T15:20:39.049Z,50.80
2018-07-21T15:26:03.097Z,48.60
2018-07-21T15:28:36.746Z,47.70
2018-07-21T15:31:11.070Z,48.20
2018-07-21T15:33:44.426Z,48.60
2018-07-21T15:36:17.061Z,50.20
2018-07-21T15:38:49.017Z,50.30
2018-07-21T15:41:22.087Z,51.00
2018-07-21T15:43:53.631Z,52.00
2018-07-21T15:46:25.226Z,51.30
2018-07-21T15:48:55.057Z,50.50
2018-07-21T15:51:25.476Z,48.90
2018-07-21T15:53:56.217Z,48.70
2018-07-21T15:56:25.988Z,48.00
2018-07-21T15:58:58.115Z,47.60
2018-07-21T16:01:28.651Z,48.00
2018-07-21T16:03:57.610Z,49.10
2018-07-21T16:06:26.689Z,49.50
2018-07-21T16:08:58.412Z,50.30
2018-07-21T16:11:29.604Z,50.10
2018-07-21T16:14:00.730Z,50.30
2018-07-21T16:16:31.372Z,49.50
2018-07-21T16:19:01.944Z,48.80
2018-07-21T16:21:32.678Z,47.50
2018-07-21T16:24:10.461Z,46.70
2018-07-21T16:26:50.066Z,46.70
2018-07-21T16:29:19.482Z,47.00
2018-07-21T16:31:54.931Z,47.40
2018-07-21T16:34:27.575Z,47.50
2018-07-21T16:36:59.380Z,48.00
2018-07-21T16:39:29.436Z,48.90
2018-07-21T16:41:59.881Z,49.30
2018-07-21T16:44:31.583Z,48.90
2018-07-21T16:47:02.182Z,49.60
2018-07-21T16:49:33.478Z,49.20
2018-07-21T16:52:04.353Z,48.90
2018-07-21T16:54:33.391Z,49.10
2018-07-21T16:57:16.016Z,49.90
2018-07-21T16:59:46.063Z,51.60
2018-07-21T17:02:22.966Z,57.80
2018-07-21T17:04:52.978Z,60.30
2018-07-21T17:07:23.704Z,63.10
2018-07-21T17:12:28.817Z,65.20
2018-07-21T17:14:59.077Z,67.50
2018-07-21T17:17:29.736Z,67.80
2018-07-21T17:20:02.779Z,64.00
2018-07-21T17:23:43.204Z,65.50
2018-07-21T17:26:17.529Z,64.80
2018-07-21T17:28:47.895Z,66.80
2018-07-21T17:31:28.888Z,67.40
2018-07-21T17:33:58.907Z,70.10
2018-07-21T17:36:30.166Z,72.30
2018-07-21T17:39:03.717Z,73.10
2018-07-21T17:44:26.638Z,73.30
2018-07-21T17:46:59.305Z,73.70
2018-07-21T17:49:29.413Z,73.80
2018-07-21T17:52:00.791Z,73.80
2018-07-21T17:54:36.220Z,74.60
2018-07-21T17:57:05.109Z,75.00
2018-07-21T17:59:35.601Z,74.90
2018-07-21T18:02:05.594Z,74.80
2018-07-21T18:04:36.344Z,75.00
2018-07-21T18:07:06.582Z,75.30
2018-07-21T18:09:36.908Z,75.60
2018-07-21T18:12:13.247Z,75.60
2018-07-21T18:14:43.575Z,75.50
2018-07-21T18:17:13.335Z,76.50
2018-07-21T18:19:44.579Z,76.00
2018-07-21T18:22:13.497Z,75.00
2018-07-21T18:24:43.216Z,75.50
2018-07-21T18:27:14.930Z,75.40
2018-07-21T18:29:45.832Z,76.10
2018-07-21T18:32:16.918Z,76.20
2018-07-21T18:34:48.171Z,76.80
2018-07-21T18:37:17.099Z,76.50
2018-07-21T18:39:47.871Z,76.50
2018-07-21T18:44:46.114Z,76.10
2018-07-21T18:47:15.967Z,76.30
2018-07-21T18:49:45.989Z,76.60
2018-07-21T18:52:16.580Z,76.60
2018-07-21T18:54:46.497Z,77.30
2018-07-21T18:57:16.893Z,77.80
2018-07-21T18:59:47.945Z,77.60
2018-07-21T19:02:18.133Z,77.70
2018-07-21T19:04:48.082Z,77.60
2018-07-21T19:07:20.703Z,77.60
2018-07-21T19:12:29.561Z,77.40
2018-07-21T19:15:00.157Z,77.30
2018-07-21T19:17:31.203Z,77.60
2018-07-21T19:20:05.723Z,78.10
2018-07-21T19:22:36.282Z,78.50
2018-07-21T19:25:11.229Z,78.30
2018-07-21T19:27:42.577Z,78.50
2018-07-21T19:30:15.666Z,78.60
2018-07-21T19:32:55.723Z,78.90
2018-07-21T19:35:26.758Z,79.00
2018-07-21T19:37:58.374Z,79.40
2018-07-21T19:40:30.774Z,79.40
2018-07-21T19:43:01.739Z,79.20
2018-07-21T19:45:35.286Z,79.40
2018-07-21T19:48:06.630Z,79.40
2018-07-21T19:50:37.478Z,78.90
2018-07-21T19:53:06.974Z,79.00
2018-07-21T19:55:39.809Z,79.00
2018-07-21T19:58:09.267Z,79.00
2018-07-21T20:00:40.876Z,79.40
2018-07-21T20:03:10.253Z,79.30
2018-07-21T20:05:41.789Z,79.60
2018-07-21T20:08:12.296Z,79.80
2018-07-21T20:10:43.177Z,80.30
2018-07-21T20:13:13.690Z,79.80
2018-07-21T20:15:43.912Z,79.80
2018-07-21T20:18:13.554Z,79.90
2018-07-21T20:20:43.596Z,80.10
2018-07-21T20:23:12.362Z,79.70
2018-07-21T20:25:46.860Z,79.40
2018-07-21T20:28:17.458Z,78.90
2018-07-21T20:30:47.809Z,78.70
2018-07-21T20:33:16.613Z,78.80
2018-07-21T20:35:47.439Z,78.90
2018-07-21T20:38:17.435Z,79.70
2018-07-21T20:40:47.596Z,80.50
2018-07-21T20:43:17.797Z,81.70
2018-07-21T20:45:48.298Z,82.90
2018-07-21T20:48:18.270Z,83.90
2018-07-21T20:50:49.035Z,84.60
2018-07-21T20:53:19.608Z,85.30
2018-07-21T20:55:50.331Z,85.70
2018-07-21T20:58:20.919Z,85.90
2018-07-21T21:00:50.891Z,86.20
2018-07-21T21:03:20.753Z,86.50
2018-07-21T21:05:50.789Z,86.60
2018-07-21T21:08:29.724Z,86.70
2018-07-21T21:11:01.117Z,86.50
2018-07-21T21:13:31.887Z,86.00
2018-07-21T21:16:02.131Z,86.20
2018-07-21T21:18:33.086Z,86.50
2018-07-21T21:21:03.652Z,86.40
2018-07-21T21:23:37.110Z,86.30
2018-07-21T21:26:06.706Z,86.60
2018-07-21T21:28:37.093Z,85.90
2018-07-21T21:31:07.411Z,85.90
2018-07-21T21:33:37.620Z,85.50
2018-07-21T21:36:07.445Z,84.30
2018-07-21T21:38:37.207Z,84.00
2018-07-21T21:41:11.067Z,83.70
2018-07-21T21:43:42.053Z,82.90
2018-07-21T21:46:12.663Z,82.60
2018-07-21T21:48:44.256Z,82.20
2018-07-21T21:51:14.402Z,81.80
2018-07-21T21:53:46.959Z,81.30
2018-07-21T21:56:17.770Z,81.20
2018-07-21T21:58:47.612Z,80.60
2018-07-21T22:01:17.429Z,80.50
2018-07-21T22:03:47.561Z,80.30
2018-07-21T22:06:17.586Z,80.00
2018-07-21T22:08:47.785Z,79.60
2018-07-21T22:11:18.836Z,79.60
2018-07-21T22:13:48.850Z,79.50
2018-07-21T22:16:18.310Z,79.40
2018-07-21T22:18:48.514Z,79.40
2018-07-21T22:21:18.545Z,79.30
2018-07-21T22:23:48.442Z,79.40
2018-07-21T22:26:18.843Z,79.30
2018-07-21T22:28:48.581Z,79.40
2018-07-21T22:31:17.397Z,79.40
2018-07-21T22:33:47.414Z,79.60
2018-07-21T22:36:16.408Z,79.70
2018-07-21T22:38:46.832Z,79.70
2018-07-21T22:43:46.341Z,79.80
2018-07-21T22:46:15.387Z,79.90
2018-07-21T22:48:44.288Z,79.80
2018-07-21T22:51:13.680Z,80.30
2018-07-21T22:53:43.153Z,80.50
2018-07-21T22:56:12.695Z,80.50
2018-07-21T22:58:44.851Z,80.60
2018-07-21T23:01:14.905Z,80.80
2018-07-21T23:03:45.014Z,81.00
2018-07-21T23:06:14.847Z,81.10
2018-07-21T23:08:44.816Z,81.60
2018-07-21T23:11:14.787Z,81.70
2018-07-21T23:13:44.564Z,81.80
2018-07-21T23:16:15.258Z,81.90
2018-07-21T23:18:44.632Z,81.80
2018-07-21T23:21:14.184Z,81.70
2018-07-21T23:23:44.106Z,81.60
2018-07-21T23:26:13.687Z,81.70
2018-07-21T23:28:43.169Z,82.00
2018-07-21T23:31:12.604Z,82.30
2018-07-21T23:33:43.340Z,82.70
2018-07-21T23:36:12.884Z,82.20
2018-07-21T23:38:42.842Z,82.20
2018-07-21T23:41:13.186Z,82.40
2018-07-21T23:43:44.622Z,82.10
2018-07-21T23:46:14.951Z,82.00
2018-07-21T23:48:45.280Z,81.90
2018-07-21T23:51:14.053Z,82.00
2018-07-21T23:53:44.381Z,82.00
2018-07-21T23:56:14.471Z,82.20
2018-07-21T23:58:45.650Z,82.70
